Flight Track Log - Related Links

Times and Time Zones

All times are in EDT time to prevent confusion due to time zone crossing. See the AAL2410 flight status page for this flight to view local times or setup timezone preferences in your user account.

Time Position Orientation Groundspeed Altitude Reporting Facility
EDT Latitude Longitude Course Direction KTS MPH feet Rate Location/Type
Wed 09:04:09 AM 33.9341 -118.4322 252° West 177 204 1,100  Level FlightAware ADS-B
Wed 09:04:29 AM 33.9235 -118.4501 226° Southwest 181 208 1,700 1,500 Climbing FlightAware ADS-B
Wed 09:04:49 AM 33.9111 -118.4650 225° Southwest 197 227 2,100 1,350 Climbing FlightAware ADS-B
Wed 09:05:09 AM 33.8974 -118.4812 225° Southwest 212 244 2,600 1,333 Climbing FlightAware ADS-B
Wed 09:05:25 AM 33.8862 -118.4945 225° Southwest 226 260 2,900 1,929 Climbing FlightAware ADS-B
Wed 09:05:37 AM 33.8781 -118.5032 220° Southwest 232 267 3,500 1,846 Climbing FlightAware ADS-B
Wed 09:05:51 AM 33.8623 -118.5116 195° South 239 275 3,700 1,404 Climbing FlightAware ADS-B
Wed 09:06:24 AM 33.8261 -118.5117 178° South 266 306 4,600 1,889 Climbing FlightAware ADS-B
Wed 09:06:45 AM 33.8014 -118.5117 182° South 269 310 5,400 2,217 Climbing FlightAware ADS-B
Wed 09:07:10 AM 33.7634 -118.5148 185° South 292 336 6,300 2,087 Climbing FlightAware ADS-B
Wed 09:07:31 AM 33.7366 -118.5175 185° South 297 342 7,000 2,400 Climbing FlightAware ADS-B
Wed 09:07:50 AM 33.7120 -118.5141 157° South 293 337 7,900 2,647 Climbing FlightAware ADS-B
Wed 09:08:05 AM 33.6966 -118.5017 137° Southeast 286 329 8,500 2,700 Climbing FlightAware ADS-B
Wed 09:08:10 AM 33.6900 -118.4919 125° Southeast 285 328 8,800 2,118 Climbing FlightAware ADS-B
Wed 09:08:22 AM 33.6838 -118.4764 112° Southeast 286 329 9,100 2,077 Climbing FlightAware ADS-B
Wed 09:09:02 AM 33.6659 -118.4148 110° East 305 351 10,600 1,881 Climbing FlightAware ADS-B
Wed 09:09:29 AM 33.6532 -118.3725 109° East 331 381 11,200 1,837 Climbing FlightAware ADS-B
Wed 09:09:51 AM 33.6452 -118.3288 96° East 337 388 12,100 2,182 Climbing FlightAware ADS-B
Wed 09:10:02 AM 33.6445 -118.3166 93° East 339 390 12,400 2,400 Climbing FlightAware ADS-B
Wed 09:10:11 AM 33.6445 -118.2920 89° East 342 394 12,900 2,800 Climbing FlightAware ADS-B
Wed 09:10:32 AM 33.6446 -118.2534 90° East 347 399 13,800 2,914 Climbing FlightAware ADS-B
Wed 09:10:46 AM 33.6446 -118.2261 89° East 349 402 14,600 2,545 Climbing FlightAware ADS-B
Wed 09:11:05 AM 33.6447 -118.1883 90° East 357 411 15,200 2,200 Climbing FlightAware ADS-B
Wed 09:11:16 AM 33.6447 -118.1664 90° East 361 415 15,700 2,684 Climbing FlightAware ADS-B
Wed 09:11:43 AM 33.6447 -118.1136 90° East 369 425 16,900 2,600 Climbing FlightAware ADS-B
Wed 09:11:46 AM 33.6447 -118.1053 90° East 369 425 17,000 2,250 Climbing FlightAware ADS-B
Wed 09:12:15 AM 33.6446 -118.0548 90° East 375 432 18,100 2,211 Climbing FlightAware ADS-B
Wed 09:12:24 AM 33.6445 -118.0266 90° East 377 434 18,400 2,690 Climbing FlightAware ADS-B
Wed 09:12:44 AM 33.6444 -117.9827 90° East 381 438 19,400 2,571 Climbing FlightAware ADS-B
Wed 09:12:45 AM 33.6444 -117.9818 91° East 381 438 19,300 1,200 Descending FlightAware ADS-B
Wed 09:12:54 AM 33.6437 -117.9643 94° East 383 441 19,600 2,323 Climbing FlightAware ADS-B
Wed 09:13:16 AM 33.6381 -117.9154 98° East 392 451 20,500 2,270 Climbing FlightAware ADS-B
Wed 09:13:31 AM 33.6346 -117.8867 99° East 394 453 21,000 2,143 Climbing FlightAware ADS-B
Wed 09:13:44 AM 33.6305 -117.8542 98° East 398 458 21,500 2,093 Climbing FlightAware ADS-B
Wed 09:14:14 AM 33.6226 -117.7899 98° East 405 466 22,500 1,756 Climbing FlightAware ADS-B
Wed 09:14:25 AM 33.6199 -117.7677 98° East 407 468 22,700 1,688 Climbing FlightAware ADS-B
Wed 09:14:46 AM 33.6138 -117.7186 98° East 411 473 23,400 1,941 Climbing FlightAware ADS-B
Wed 09:14:59 AM 33.6104 -117.6905 98° East 414 476 23,800 1,650 Climbing FlightAware ADS-B
Wed 09:15:26 AM 33.6027 -117.6276 98° East 422 486 24,500 1,600 Climbing FlightAware ADS-B
Wed 09:15:29 AM 33.6022 -117.6242 98° East 423 487 24,600 1,895 Climbing FlightAware ADS-B
Wed 09:16:04 AM 33.5914 -117.5374 99° East 430 495 25,700 1,784 Climbing FlightAware ADS-B
Wed 09:16:06 AM 33.5909 -117.5329 98° East 429 494 25,700 1,600 Level FlightAware ADS-B
Wed 09:16:34 AM 33.5825 -117.4657 98° East 436 502 26,500 1,800 Climbing FlightAware ADS-B
Wed 09:16:36 AM 33.5818 -117.4604 98° East 436 502 26,600 1,500 Climbing FlightAware ADS-B
Wed 09:17:06 AM 33.5730 -117.3900 98° East 443 510 27,300 1,406 Climbing FlightAware ADS-B
Wed 09:17:40 AM 33.5626 -117.3075 98° East 453 521 28,100 1,371 Climbing FlightAware ADS-B
Wed 09:17:41 AM 33.5623 -117.3050 99° East 454 522 28,100 1,071 Level FlightAware ADS-B
Wed 09:18:08 AM 33.5544 -117.2427 98° East 459 528 28,600 1,143 Climbing FlightAware ADS-B
Wed 09:18:23 AM 33.5490 -117.1991 98° East 462 532 28,900 1,304 Climbing FlightAware ADS-B
Wed 09:18:31 AM 33.5466 -117.1763 97° East 464 534 29,100 1,263 Climbing FlightAware ADS-B
Wed 09:18:42 AM 33.5441 -117.1509 96° East 467 537 29,300 1,200 Climbing FlightAware ADS-B
Wed 09:19:01 AM 33.5392 -117.0986 96° East 470 541 29,700 1,241 Climbing FlightAware ADS-B (KBNG)
Wed 09:19:11 AM 33.5376 -117.0818 96° East 471 542 29,900 1,317 Climbing FlightAware ADS-B
Wed 09:19:42 AM 33.5291 -116.9930 97° East 476 548 30,600 1,347 Climbing FlightAware ADS-B (KBNG)
Wed 09:20:00 AM 33.5255 -116.9563 96° East 477 549 31,000 1,412 Climbing FlightAware ADS-B
Wed 09:20:16 AM 33.5224 -116.9251 97° East 480 552 31,400 1,375 Climbing FlightAware ADS-B
Wed 09:20:48 AM 33.5114 -116.8192 97° East 479 551 32,100 1,371 Climbing FlightAware ADS-B (KBNG)
Wed 09:21:26 AM 33.5012 -116.7224 97° East 477 549 33,000 1,391 Climbing FlightAware ADS-B
Wed 09:21:57 AM 33.4934 -116.6479 97° East 477 549 33,700 1,292 Climbing FlightAware ADS-B
Wed 09:22:31 AM 33.4828 -116.5492 97° East 477 549 34,400 1,108 Climbing FlightAware ADS-B (KBNG)
Wed 09:23:02 AM 33.4745 -116.4712 97° East 476 548 34,900 896 Climbing FlightAware ADS-B
Wed 09:23:38 AM 33.4643 -116.3753 97° East 479 551 35,400 1,050 Climbing FlightAware ADS-B (KBNG)
Wed 09:24:22 AM 33.4525 -116.2671 98° East 469 540 36,300 475 Climbing FlightAware ADS-B
Wed 09:27:00 AM 33.4585 -116.3219 98° East 467 537 37,000 169 Climbing FlightAware ADS-B (KBNG)
Wed 09:27:55 AM 33.3911 -115.7231 98° East 467 537 36,900  Descending Los Angeles Center
Wed 09:28:56 AM 33.3747 -115.5683 97° East 467 537 37,000  Climbing Los Angeles Center
Wed 09:29:57 AM 33.3567 -115.4136 98° East 467 537 36,900  Descending Los Angeles Center
Wed 09:30:58 AM 33.3381 -115.2572 98° East 474 545 37,000 49 Climbing Los Angeles Center
Wed 09:31:59 AM 33.3214 -115.1014 97° East 474 545 37,000  Level Los Angeles Center
Wed 09:33:00 AM 33.3006 -114.9436 99° East 477 549 37,000  Level Los Angeles Center
Wed 09:34:01 AM 33.2822 -114.7875 98° East 477 549 37,000  Level Los Angeles Center
Wed 09:35:03 AM 33.2628 -114.6300 98° East 476 548 37,000 -49 Level Los Angeles Center
Wed 09:36:04 AM 33.2447 -114.4722 98° East 477 549 36,900 -293 Descending Los Angeles Center
Wed 09:41:53 AM 33.1268 -113.5422 98° East 478 550 35,000 -256 Descending FlightAware ADS-B (VRMM / MLE)
Wed 09:43:30 AM 33.0932 -113.2876 98° East 478 550 35,000  Level FlightAware ADS-B (VRMM / MLE)
Wed 09:44:38 AM 33.0696 -113.1106 98° East 479 551 35,000  Level FlightAware ADS-B (VRMM / MLE)
Wed 09:45:17 AM 33.0559 -113.0086 98° East 479 551 35,000  Level FlightAware ADS-B (VRMM / MLE)
Wed 09:45:48 AM 33.0450 -112.9287 98° East 478 550 35,000  Level FlightAware ADS-B (VRMM / MLE)
Wed 09:46:23 AM 33.0327 -112.8392 98° East 479 551 35,000  Level FlightAware ADS-B (VRMM / MLE)
Wed 09:46:33 AM 33.0291 -112.8123 98° East 479 551 35,000  Level FlightAware ADS-B (VRMM / MLE)
Wed 09:46:46 AM 33.0244 -112.7787 98° East 479 551 35,000  Level FlightAware ADS-B (VRMM / MLE)
Wed 09:47:37 AM 33.0061 -112.6446 99° East 481 554 35,000  Level FlightAware ADS-B (KTLH)
Wed 09:48:07 AM 32.9951 -112.5661 99° East 483 556 35,000  Level FlightAware ADS-B (VRMM / MLE)
Wed 09:48:38 AM 32.9840 -112.4865 99° East 485 558 35,000  Level FlightAware ADS-B (KTLH)
Wed 09:49:02 AM 32.9752 -112.4238 100° East 485 558 35,000  Level FlightAware ADS-B
Wed 09:49:37 AM 32.9618 -112.3291 100° East 486 559 35,000  Level FlightAware ADS-B (KTLH)
Wed 09:50:07 AM 32.9536 -112.2709 100° East 488 562 35,000  Level FlightAware ADS-B
Wed 09:50:46 AM 32.9362 -112.1480 100° East 491 565 35,000  Level FlightAware ADS-B
Wed 09:51:21 AM 32.9230 -112.0559 100° East 492 566 35,000  Level FlightAware ADS-B (VRMM / MLE)
Wed 09:52:01 AM 32.9070 -111.9443 100° East 492 566 35,000  Level FlightAware ADS-B
Wed 09:52:35 AM 32.8945 -111.8580 100° East 490 564 35,000  Level FlightAware ADS-B (VRMM / MLE)
Wed 09:53:06 AM 32.8827 -111.7769 100° East 491 565 35,000  Level FlightAware ADS-B
Wed 09:53:38 AM 32.8704 -111.6922 100° East 491 565 35,000  Level FlightAware ADS-B (VRMM / MLE)
Wed 09:54:08 AM 32.8587 -111.6125 100° East 492 566 35,000  Level FlightAware ADS-B
Wed 09:54:45 AM 32.8440 -111.5125 100° East 495 570 35,000  Level FlightAware ADS-B (KTLH)
Wed 09:55:16 AM 32.8326 -111.4364 100° East 496 571 35,000  Level FlightAware ADS-B
Wed 09:55:34 AM 32.8244 -111.3806 99° East 495 570 35,000  Level FlightAware ADS-B (VRMM / MLE)
Wed 09:55:45 AM 32.8202 -111.3530 99° East 495 570 35,000  Level FlightAware ADS-B (VRMM / MLE)
Wed 09:56:17 AM 32.8079 -111.2711 100° East 498 573 35,000  Level FlightAware ADS-B (KTLH)
Wed 09:56:37 AM 32.7998 -111.2176 100° East 499 574 35,000  Level FlightAware ADS-B
Wed 09:56:46 AM 32.7953 -111.1880 99° East 498 573 35,000  Level FlightAware ADS-B (VRMM / MLE)
Wed 09:57:20 AM 32.7817 -111.0978 100° East 497 572 35,000  Level FlightAware ADS-B
Wed 09:57:50 AM 32.7694 -111.0161 99° East 496 571 35,000  Level FlightAware ADS-B (VRMM / MLE)
Wed 09:58:21 AM 32.7569 -110.9345 99° East 497 572 35,000  Level FlightAware ADS-B (VRMM / MLE)
Wed 09:58:52 AM 32.7438 -110.8489 100° East 498 573 35,000  Level FlightAware ADS-B (KTLH)
Wed 09:59:26 AM 32.7298 -110.7576 100° East 497 572 35,000  Level FlightAware ADS-B (VRMM / MLE)
Wed 10:00:03 AM 32.7159 -110.6678 100° East 498 573 35,000  Level FlightAware ADS-B
Wed 10:00:37 AM 32.7003 -110.5677 101° East 498 573 35,000  Level FlightAware ADS-B (KTLH)
Wed 10:00:44 AM 32.6976 -110.5508 101° East 499 574 35,000  Level FlightAware ADS-B
Wed 10:00:52 AM 32.6940 -110.5271 100° East 498 573 35,000  Level FlightAware ADS-B (VRMM / MLE)
Wed 10:01:23 AM 32.6811 -110.4453 101° East 501 577 35,000  Level FlightAware ADS-B
Wed 10:01:57 AM 32.6679 -110.3616 101° East 503 579 35,000  Level FlightAware ADS-B (KTLH)
Wed 10:02:17 AM 32.6578 -110.2978 100° East 502 578 35,000  Level FlightAware ADS-B (VRMM / MLE)
Wed 10:02:50 AM 32.6437 -110.2084 100° East 502 578 35,000  Level FlightAware ADS-B (VRMM / MLE)
Wed 10:03:20 AM 32.6309 -110.1270 100° East 503 579 35,000  Level FlightAware ADS-B (VRMM / MLE)
Wed 10:03:56 AM 32.6152 -110.0294 101° East 506 582 35,000  Level FlightAware ADS-B (VRMM / MLE)
Wed 10:04:27 AM 32.6135 -110.0188 101° East 507 583 35,000  Level FlightAware ADS-B
Wed 10:04:58 AM 32.5882 -109.8630 101° East 507 583 35,000  Level FlightAware ADS-B (VRMM / MLE)
Wed 10:05:28 AM 32.5748 -109.7803 101° East 507 583 35,000  Level FlightAware ADS-B
Wed 10:06:03 AM 32.5625 -109.7041 101° East 506 582 35,000  Level FlightAware ADS-B
Wed 10:06:37 AM 32.5443 -109.5930 101° East 507 583 35,000  Level FlightAware ADS-B (VRMM / MLE)
Wed 10:07:14 AM 32.5275 -109.4915 101° East 507 583 35,000  Level FlightAware ADS-B (VRMM / MLE)
Wed 10:07:45 AM 32.5142 -109.4111 101° East 508 585 35,000  Level FlightAware ADS-B
Wed 10:08:19 AM 32.4980 -109.3148 101° East 508 585 35,000  Level FlightAware ADS-B (VRMM / MLE)
Wed 10:09:07 AM 32.4784 -109.1965 101° East 507 583 35,000  Level FlightAware ADS-B
Wed 10:09:38 AM 32.4619 -109.0981 101° East 506 582 35,000  Level FlightAware ADS-B (VRMM / MLE)
Wed 10:10:10 AM 32.4477 -109.0137 101° East 508 585 35,000  Level FlightAware ADS-B
Wed 10:10:46 AM 32.4339 -108.9314 101° East 511 588 35,000  Level FlightAware ADS-B
Wed 10:11:28 AM 32.4115 -108.8001 101° East 511 588 35,000  Level FlightAware ADS-B
Wed 10:12:06 AM 32.4025 -108.7485 102° East 510 587 35,000  Level FlightAware ADS-B
Wed 10:13:09 AM 32.3664 -108.5444 102° East 508 585 35,000  Level Albuquerque Center
Wed 10:14:11 AM 32.3353 -108.3619 101° East 508 585 35,000  Level Albuquerque Center
Wed 10:15:13 AM 32.3044 -108.1969 102° East 510 587 35,000  Level Albuquerque Center
Wed 10:16:15 AM 32.2758 -108.0322 102° East 512 589 35,000 -49 Level Albuquerque Center
Wed 10:17:16 AM 32.2464 -107.8664 102° East 513 590 34,900  Descending Albuquerque Center
Wed 10:18:18 AM 32.2172 -107.7011 102° East 516 594 35,000 48 Climbing Albuquerque Center
Wed 10:19:20 AM 32.1878 -107.5364 102° East 516 594 35,000  Level Albuquerque Center
Wed 10:25:15 AM 31.9989 -106.5190 102° East 522 601 35,000  Level FlightAware ADS-B (KROW)
Wed 10:25:45 AM 31.9830 -106.4356 102° East 522 601 35,000  Level FlightAware ADS-B (KROW)
Wed 10:26:15 AM 31.9676 -106.3544 102° East 522 601 35,000  Level FlightAware ADS-B (KROW)
Wed 10:26:45 AM 31.9539 -106.2701 97° East 521 600 35,000  Level FlightAware ADS-B (KROW)
Wed 10:27:35 AM 31.9495 -106.1269 91° East 519 597 35,000  Level FlightAware ADS-B (KROW)
Wed 10:28:06 AM 31.9482 -106.0433 90° East 518 596 35,000  Level FlightAware ADS-B (KROW)
Wed 10:28:35 AM 31.9469 -105.9604 91° East 518 596 35,000  Level FlightAware ADS-B (KROW)
Wed 10:29:01 AM 31.9457 -105.8921 91° East 518 596 35,000  Level FlightAware ADS-B (KROW)
Wed 10:29:35 AM 31.9438 -105.7915 91° East 518 596 35,000  Level FlightAware ADS-B (KROW)
Wed 10:30:05 AM 31.9421 -105.7076 91° East 518 596 35,000  Level FlightAware ADS-B (KROW)
Wed 10:30:35 AM 31.9405 -105.6247 91° East 517 595 35,000  Level FlightAware ADS-B (KROW)
Wed 10:31:05 AM 31.9388 -105.5384 91° East 519 597 35,000  Level FlightAware ADS-B (KROW)
Wed 10:31:36 AM 31.9369 -105.4515 91° East 520 598 35,000  Level FlightAware ADS-B (KROW)
Wed 10:32:05 AM 31.9352 -105.3681 91° East 521 600 35,000  Level FlightAware ADS-B (KROW)
Wed 10:32:35 AM 31.9333 -105.2829 91° East 522 601 35,000  Level FlightAware ADS-B (KROW)
Wed 10:33:05 AM 31.9325 -105.2511 91° East 523 602 35,000  Level FlightAware ADS-B (KROW)
Wed 10:33:35 AM 31.9296 -105.1161 91° East 523 602 35,000  Level FlightAware ADS-B (KROW)
Wed 10:34:04 AM 31.9279 -105.0342 91° East 525 604 35,000  Level FlightAware ADS-B (KROW)
Wed 10:34:31 AM 31.9261 -104.9526 91° East 526 605 35,000  Level FlightAware ADS-B (KROW)
Wed 10:35:05 AM 31.9238 -104.8553 91° East 525 604 35,000  Level FlightAware ADS-B (KROW)
Wed 10:35:35 AM 31.9216 -104.7700 91° East 523 602 35,000  Level FlightAware ADS-B (KROW)
Wed 10:36:05 AM 31.9195 -104.6852 91° East 522 601 35,000  Level FlightAware ADS-B (KROW)
Wed 10:36:35 AM 31.9172 -104.6005 91° East 522 601 35,000  Level FlightAware ADS-B (KROW)
Wed 10:37:05 AM 31.9150 -104.5161 91° East 521 600 35,000  Level FlightAware ADS-B (KROW)
Wed 10:37:35 AM 31.9127 -104.4304 91° East 521 600 35,000  Level FlightAware ADS-B (KROW)
Wed 10:38:05 AM 31.9104 -104.3452 91° East 521 600 35,000  Level FlightAware ADS-B (KROW)
Wed 10:38:31 AM 31.9084 -104.2746 91° East 521 600 35,000  Level FlightAware ADS-B (KROW)
Wed 10:39:05 AM 31.9064 -104.2059 92° East 520 598 35,000  Level FlightAware ADS-B (KROW)
Wed 10:39:35 AM 31.9028 -104.0916 91° East 519 597 35,000  Level FlightAware ADS-B (KROW)
Wed 10:40:05 AM 31.9004 -104.0098 91° East 517 595 35,000  Level FlightAware ADS-B (KROW)
Wed 10:40:35 AM 31.8978 -103.9237 91° East 516 594 35,000  Level FlightAware ADS-B (KROW)
Wed 10:41:05 AM 31.8953 -103.8399 92° East 516 594 35,000  Level FlightAware ADS-B (KROW)
Wed 10:41:35 AM 31.8925 -103.7544 92° East 516 594 35,000  Level FlightAware ADS-B (KROW)
Wed 10:42:05 AM 31.8897 -103.6710 92° East 517 595 35,000  Level FlightAware ADS-B (KROW)
Wed 10:42:31 AM 31.8874 -103.6025 92° East 517 595 35,000  Level FlightAware ADS-B (KROW)
Wed 10:43:03 AM 31.8842 -103.5100 92° East 518 596 35,000  Level FlightAware ADS-B (KROW)
Wed 10:43:35 AM 31.8810 -103.4183 92° East 519 597 35,000  Level FlightAware ADS-B (KROW)
Wed 10:44:05 AM 31.8780 -103.3356 92° East 521 600 35,000  Level FlightAware ADS-B (KROW)
Wed 10:44:18 AM 31.8772 -103.3136 92° East 521 600 35,000  Level FlightAware ADS-B (KROW)
Wed 10:45:25 AM 31.8904 -103.1135 82° East 522 601 35,000  Level FlightAware ADS-B (KROW)
Wed 10:45:55 AM 31.9005 -103.0273 82° East 523 602 35,000  Level FlightAware ADS-B (KROW)
Wed 10:46:20 AM 31.9056 -102.9833 82° East 524 603 35,000  Level FlightAware ADS-B (KROW)
Wed 10:48:16 AM 31.9462 -102.6319 82° East 525 604 35,000  Level FlightAware ADS-B (KROW)
Wed 10:49:11 AM 31.9625 -102.4847 82° East 526 605 35,000 -51 Level Fort Worth Center
Wed 10:50:13 AM 31.9825 -102.3131 82° East 526 605 34,900  Descending Fort Worth Center
Wed 10:51:16 AM 32.0019 -102.1389 82° East 528 608 35,000 48 Climbing Fort Worth Center
Wed 10:52:18 AM 32.0208 -101.9675 83° East 528 608 35,000  Level Fort Worth Center
Wed 10:53:20 AM 32.0381 -101.7942 83° East 528 608 35,000  Level Fort Worth Center
Wed 10:54:22 AM 32.0606 -101.5869 83° East 529 609 35,000  Level Fort Worth Center
Wed 10:55:24 AM 32.0783 -101.4147 83° East 529 609 35,000 -48 Level Fort Worth Center
Wed 10:56:26 AM 32.0964 -101.2419 83° East 530 610 34,900 -48 Descending Fort Worth Center
Wed 10:57:28 AM 32.1136 -101.0683 83° East 531 611 34,900 48 Level Fort Worth Center
Wed 10:58:30 AM 32.1322 -100.8883 83° East 530 610 35,000 48 Climbing Fort Worth Center
Wed 10:59:33 AM 32.1503 -100.7178 83° East 527 606 35,000  Level Fort Worth Center
Wed 11:00:35 AM 32.1669 -100.5464 83° East 527 606 35,000  Level Fort Worth Center
Wed 11:01:37 AM 32.1839 -100.3750 83° East 527 606 35,000  Level Fort Worth Center
Wed 11:02:39 AM 32.2031 -100.1678 84° East 529 609 35,000  Level Fort Worth Center
Wed 11:03:41 AM 32.2189 -99.9950 84° East 532 612 35,000  Level Fort Worth Center
Wed 11:04:43 AM 32.2344 -99.8222 84° East 532 612 35,000  Level Fort Worth Center
Wed 11:05:45 AM 32.2292 -99.6481 92° East 531 611 35,000  Level Fort Worth Center
Wed 11:06:47 AM 32.2233 -99.4711 92° East 537 618 35,000 -336 Level Fort Worth Center
Wed 11:07:50 AM 32.2167 -99.2631 92° East 536 617 34,300 -2,016 Descending Fort Worth Center
Wed 11:08:52 AM 32.2094 -99.0861 93° East 536 617 30,800 -2,758 Descending Fort Worth Center
Wed 11:09:54 AM 32.2156 -98.9111 88° East 537 618 28,600 -2,226 Descending Fort Worth Center
Wed 11:10:56 AM 32.2344 -98.7406 82° East 530 610 26,200 -2,521 Descending Fort Worth Center
Wed 11:16:22 AM 32.3152 -97.9247 83° East 378 435 12,300 -2,179 Descending FlightAware ADS-B
Wed 11:18:00 AM 32.3316 -97.7457 83° East 330 380 10,800 -797 Descending FlightAware ADS-B
Wed 11:19:00 AM 32.3582 -97.6403 49° Northeast 296 341 10,200 -911 Descending FlightAware ADS-B
Wed 11:19:19 AM 32.3761 -97.6197 45° Northeast 287 330 9,600 -1,692 Descending FlightAware ADS-B
Wed 11:19:39 AM 32.3897 -97.6036 45° Northeast 284 327 9,100 -1,571 Descending FlightAware ADS-B
Wed 11:20:01 AM 32.4143 -97.5744 45° Northeast 279 321 8,500 -1,839 Descending FlightAware ADS-B
Wed 11:20:41 AM 32.4497 -97.5316 46° Northeast 276 318 7,200 -1,700 Descending FlightAware ADS-B
Wed 11:21:01 AM 32.4660 -97.5095 54° Northeast 274 315 6,800 -1,400 Descending FlightAware ADS-B
Wed 11:21:41 AM 32.4898 -97.4552 66° East 270 311 5,800 -1,424 Descending FlightAware ADS-B
Wed 11:22:00 AM 32.4994 -97.4307 65° Northeast 256 295 5,400 -923 Descending FlightAware ADS-B
Wed 11:22:20 AM 32.5087 -97.4069 65° Northeast 246 283 5,200 -750 Descending FlightAware ADS-B
Wed 11:22:40 AM 32.5187 -97.3818 65° Northeast 234 269 4,900 -585 Descending FlightAware ADS-B
Wed 11:23:01 AM 32.5271 -97.3605 65° Northeast 223 257 4,800 -146 Descending FlightAware ADS-B
Wed 11:23:21 AM 32.5360 -97.3377 65° Northeast 218 251 4,800  Level FlightAware ADS-B
Wed 11:23:39 AM 32.5430 -97.3199 65° Northeast 216 249 4,800  Level FlightAware ADS-B
Wed 11:24:20 AM 32.5614 -97.2733 65° Northeast 218 251 4,800  Level FlightAware ADS-B
Wed 11:24:39 AM 32.5697 -97.2520 66° East 218 251 4,800  Level FlightAware ADS-B
Wed 11:25:20 AM 32.5860 -97.2094 65° Northeast 196 226 4,800 -439 Level FlightAware ADS-B
Wed 11:26:01 AM 32.6006 -97.1732 65° Northeast 174 200 4,200 -984 Descending FlightAware ADS-B
Wed 11:26:21 AM 32.6076 -97.1556 66° East 173 199 3,800 -1,200 Descending FlightAware ADS-B
Wed 11:27:01 AM 32.6196 -97.1231 66° East 176 203 3,000 -900 Descending FlightAware ADS-B
Wed 11:27:21 AM 32.6272 -97.1034 66° East 172 198 2,900 -300 Descending FlightAware ADS-B
Wed 11:27:41 AM 32.6378 -97.0900 35° Northeast 163 188 2,800 -150 Descending FlightAware ADS-B
Wed 11:28:01 AM 32.6508 -97.0816 28° Northeast 162 186 2,800  Level FlightAware ADS-B
Wed 11:28:20 AM 32.6635 -97.0735 28° Northeast 162 186 2,800  Level FlightAware ADS-B
Wed 11:28:59 AM 32.6873 -97.0585 15° North 149 171 2,800  Level FlightAware ADS-B
Wed 11:29:21 AM 32.7019 -97.0560 North 148 170 2,800  Level FlightAware ADS-B
Wed 11:30:20 AM 32.7432 -97.0556 North 146 168 2,800 -300 Level FlightAware ADS-B
Wed 11:31:21 AM 32.7853 -97.0554 North 152 175 2,200 -615 Descending FlightAware ADS-B
Wed 11:31:38 AM 32.7967 -97.0553 North 144 166 2,000 -500 Descending FlightAware ADS-B
Wed 11:32:09 AM 32.8167 -97.0500 North 145 167 1,800 -581 Descending Dallas / Fort Worth TRACON
Wed 11:32:40 AM 32.8356 -97.0558 345° North 141 162 1,400 -702 Descending Fort Worth Center
Wed 11:33:43 AM 32.8742 -97.0556 360° North 138 159 700 -667 Descending Fort Worth Center

Login

Don't have an account? Register now (free) for customized features, flight alerts, and more!